Time;durP1;ratioP1;P1;durP2;ratioP2;P2;SDS_P1;SDS_P2;PMS_P1;PMS_P2;Temp;Humidity;BMP_temperature;BMP_pressure;BME280_temperature;BME280_humidity;BME280_pressure;Samples;Min_cycle;Max_cycle;Signal;HPM_P1;HPM_P2
2023/08/05 00:01:38;;;;;;;9.23;2.42;;;16.00;99.90;;;;;;5067462;28;20047;-83
2023/08/05 00:04:04;;;;;;;8.93;2.45;;;15.90;99.90;;;;;;5067802;28;20037;-83
2023/08/05 00:06:29;;;;;;;8.48;2.63;;;15.90;99.90;;;;;;5087114;28;20488;-83
2023/08/05 00:08:55;;;;;;;8.40;2.50;;;15.90;99.90;;;;;;5085857;28;20036;-83
2023/08/05 00:11:21;;;;;;;14.32;2.92;;;15.90;99.90;;;;;;5068402;28;20456;-83
2023/08/05 00:13:47;;;;;;;12.10;2.70;;;15.90;99.90;;;;;;5069549;28;20051;-83
2023/08/05 00:16:14;;;;;;;7.82;2.50;;;15.80;99.90;;;;;;5070383;28;20740;-83
2023/08/05 00:18:39;;;;;;;6.57;2.78;;;15.80;99.90;;;;;;5055876;28;20470;-83
2023/08/05 00:21:05;;;;;;;6.88;2.88;;;15.80;99.90;;;;;;5054679;28;20054;-84
2023/08/05 00:23:31;;;;;;;14.82;3.17;;;15.70;99.90;;;;;;5055462;28;20067;-83
2023/08/05 00:25:56;;;;;;;9.65;3.30;;;15.70;99.90;;;;;;5071226;28;20039;-83
2023/08/05 00:28:22;;;;;;;8.57;2.50;;;15.70;99.90;;;;;;5090345;28;20052;-83
2023/08/05 00:30:48;;;;;;;10.00;2.95;;;15.70;99.90;;;;;;5053039;28;20043;-83
2023/08/05 00:33:13;;;;;;;9.07;3.42;;;15.70;99.90;;;;;;5072228;28;20080;-83
2023/08/05 00:35:39;;;;;;;12.82;3.00;;;15.70;99.90;;;;;;5054823;28;20068;-84
2023/08/05 00:38:05;;;;;;;12.75;2.63;;;15.60;99.90;;;;;;5054613;28;20512;-83
2023/08/05 00:40:31;;;;;;;12.07;2.88;;;15.60;99.90;;;;;;5071744;28;20457;-83
2023/08/05 00:42:56;;;;;;;8.25;2.72;;;15.60;99.90;;;;;;5071386;28;20047;-84
2023/08/05 00:45:22;;;;;;;9.30;2.92;;;15.60;99.90;;;;;;5054774;28;20044;-83
2023/08/05 00:47:48;;;;;;;9.45;2.83;;;15.60;99.90;;;;;;5088702;28;20131;-83
2023/08/05 00:50:14;;;;;;;6.95;2.65;;;15.50;99.90;;;;;;5071714;28;20039;-83
2023/08/05 00:52:41;;;;;;;13.30;3.20;;;15.50;99.90;;;;;;5053472;28;20076;-83
2023/08/05 00:55:07;;;;;;;9.70;2.97;;;15.50;99.90;;;;;;5054703;28;20093;-83
2023/08/05 00:57:34;;;;;;;12.35;3.83;;;15.40;99.90;;;;;;5071397;28;20052;-83
2023/08/05 00:59:59;;;;;;;10.18;3.10;;;15.40;99.90;;;;;;5070495;28;20051;-83
2023/08/05 01:02:25;;;;;;;9.50;3.20;;;15.30;99.90;;;;;;5071200;28;20036;-83
2023/08/05 01:04:51;;;;;;;10.23;3.22;;;15.30;99.90;;;;;;5070581;28;20444;-83
2023/08/05 01:07:19;;;;;;;10.18;3.10;;;15.30;99.90;;;;;;5054071;28;20047;-83
2023/08/05 01:09:45;;;;;;;5.57;3.20;;;15.20;99.90;;;;;;5070717;28;20043;-83
2023/08/05 01:12:10;;;;;;;12.35;3.13;;;15.20;99.90;;;;;;5054317;28;20044;-83
2023/08/05 01:14:36;;;;;;;14.77;3.47;;;15.30;99.90;;;;;;5071456;28;20032;-83
2023/08/05 01:17:02;;;;;;;12.30;3.58;;;15.20;99.90;;;;;;5069725;28;20476;-83
2023/08/05 01:19:29;;;;;;;7.88;3.25;;;15.20;99.90;;;;;;5053858;28;20055;-83
2023/08/05 01:22:29;;;;;;;8.68;3.63;;;15.20;99.90;;;;;;5070427;28;20051;-84
2023/08/05 01:25:05;;;;;;;9.68;3.58;;;15.20;99.90;;;;;;5043975;28;20055;-83
2023/08/05 01:27:32;;;;;;;9.57;3.75;;;15.20;99.90;;;;;;5086230;28;20123;-83
2023/08/05 01:29:58;;;;;;;13.52;3.78;;;15.10;99.90;;;;;;5070432;28;20568;-83
2023/08/05 01:32:24;;;;;;;9.93;3.65;;;15.00;99.90;;;;;;5053260;28;20048;-83
2023/08/05 01:34:51;;;;;;;9.88;2.95;;;15.00;99.90;;;;;;5070034;28;20036;-83
2023/08/05 01:37:17;;;;;;;8.98;3.13;;;14.80;99.90;;;;;;5053830;28;20127;-83
2023/08/05 01:39:42;;;;;;;15.98;3.15;;;14.80;99.90;;;;;;5070926;28;20132;-83
2023/08/05 01:42:08;;;;;;;10.18;3.33;;;14.70;99.90;;;;;;5087429;28;20036;-83
2023/08/05 01:44:34;;;;;;;14.38;3.30;;;14.60;99.90;;;;;;5055053;28;20480;-83
2023/08/05 01:47:00;;;;;;;7.70;2.95;;;14.60;99.90;;;;;;5052688;28;20553;-83
2023/08/05 01:49:25;;;;;;;9.98;3.05;;;14.50;99.90;;;;;;5088295;28;20040;-83
2023/08/05 01:51:51;;;;;;;8.80;3.10;;;14.40;99.90;;;;;;5053292;28;20483;-83
2023/08/05 01:54:17;;;;;;;13.20;4.10;;;14.30;99.90;;;;;;5070758;28;20073;-83
2023/08/05 01:56:42;;;;;;;7.88;3.22;;;14.20;99.90;;;;;;5052550;28;20047;-83
2023/08/05 01:59:08;;;;;;;8.48;3.17;;;14.20;99.90;;;;;;5053901;28;20612;-83
2023/08/05 02:01:45;;;;;;;8.75;3.00;;;14.20;99.90;;;;;;5068435;28;20097;-83
2023/08/05 02:04:11;;;;;;;10.38;3.20;;;14.10;99.90;;;;;;5070718;28;20056;-83
2023/08/05 02:06:37;;;;;;;10.75;3.25;;;14.10;99.90;;;;;;5070227;28;20040;-83
2023/08/05 02:09:03;;;;;;;9.40;3.20;;;14.00;99.90;;;;;;5069360;28;20036;-83
2023/08/05 02:11:29;;;;;;;9.13;2.88;;;14.00;99.90;;;;;;5087657;28;20052;-83
2023/08/05 02:13:55;;;;;;;11.43;3.42;;;13.90;99.90;;;;;;5053363;28;20116;-83
2023/08/05 02:16:21;;;;;;;8.52;2.67;;;13.80;99.90;;;;;;5086696;28;20413;-83
2023/08/05 02:18:48;;;;;;;41.63;3.28;;;13.70;99.90;;;;;;5087844;28;20043;-83
2023/08/05 02:21:14;;;;;;;13.82;3.55;;;13.70;99.90;;;;;;5069950;28;20082;-83
2023/08/05 02:23:40;;;;;;;11.18;4.05;;;13.60;99.90;;;;;;5069120;28;20079;-83
2023/08/05 02:26:05;;;;;;;13.50;3.70;;;13.50;99.90;;;;;;5069363;28;20495;-83
2023/08/05 02:28:31;;;;;;;12.10;3.97;;;13.60;99.90;;;;;;5069766;28;20051;-83
2023/08/05 02:30:57;;;;;;;12.63;3.55;;;13.50;99.90;;;;;;5067847;28;20055;-83
2023/08/05 02:33:22;;;;;;;10.13;4.20;;;13.50;99.90;;;;;;5053591;28;20158;-83
2023/08/05 02:35:48;;;;;;;8.20;3.63;;;13.60;99.90;;;;;;5068203;28;20043;-83
2023/08/05 02:38:14;;;;;;;10.63;4.15;;;13.50;99.90;;;;;;5052563;28;20043;-83
2023/08/05 02:40:40;;;;;;;10.07;3.58;;;13.40;99.90;;;;;;5052302;28;20044;-83
2023/08/05 02:43:05;;;;;;;9.40;3.70;;;13.40;99.90;;;;;;5069521;28;20440;-83
2023/08/05 02:45:32;;;;;;;9.60;4.05;;;13.40;99.90;;;;;;5052257;28;20118;-83
2023/08/05 02:47:58;;;;;;;11.30;4.85;;;13.40;99.90;;;;;;5067886;28;20048;-83
2023/08/05 02:50:23;;;;;;;11.35;4.65;;;13.40;99.90;;;;;;5069533;28;20173;-83
2023/08/05 02:52:49;;;;;;;13.20;5.25;;;13.40;99.90;;;;;;5050950;28;20044;-82
2023/08/05 02:55:15;;;;;;;13.05;4.72;;;13.40;99.90;;;;;;5087942;28;20036;-83
2023/08/05 02:57:41;;;;;;;16.77;4.70;;;13.40;99.90;;;;;;5086762;28;20063;-83
2023/08/05 03:00:07;;;;;;;9.68;4.20;;;13.40;99.90;;;;;;5052290;28;20142;-83
2023/08/05 03:02:33;;;;;;;10.15;3.88;;;13.30;99.90;;;;;;5066272;28;20080;-83
2023/08/05 03:04:58;;;;;;;8.52;3.80;;;13.30;99.90;;;;;;5081798;28;20125;-83
2023/08/05 03:07:24;;;;;;;7.40;3.80;;;13.30;99.90;;;;;;5053522;28;20075;-82
2023/08/05 03:09:50;;;;;;;11.93;4.13;;;13.30;99.90;;;;;;5065692;28;20044;-82
2023/08/05 03:12:15;;;;;;;8.70;4.13;;;13.30;99.90;;;;;;5061069;28;20040;-83
2023/08/05 03:14:41;;;;;;;13.57;3.90;;;13.20;99.90;;;;;;5050802;28;20575;-82
2023/08/05 03:17:07;;;;;;;8.90;4.30;;;13.20;99.90;;;;;;5068213;28;20044;-82
2023/08/05 03:19:33;;;;;;;13.20;4.80;;;13.20;99.90;;;;;;5084615;28;20075;-82
2023/08/05 03:21:58;;;;;;;13.40;4.45;;;13.20;99.90;;;;;;5045568;28;20041;-83
2023/08/05 03:24:24;;;;;;;8.93;3.72;;;13.20;99.90;;;;;;5089751;28;20124;-83
2023/08/05 03:26:50;;;;;;;10.38;3.88;;;13.30;99.90;;;;;;5074277;28;20505;-83
2023/08/05 03:29:15;;;;;;;6.22;3.50;;;13.30;99.90;;;;;;5049729;28;20032;-83
2023/08/05 03:31:41;;;;;;;8.15;3.83;;;13.40;99.90;;;;;;5050206;28;20098;-83
2023/08/05 03:34:07;;;;;;;13.38;4.50;;;13.40;99.90;;;;;;5065145;28;20553;-83
2023/08/05 03:36:33;;;;;;;9.77;4.53;;;13.50;99.90;;;;;;5062000;28;20044;-82
2023/08/05 03:38:59;;;;;;;9.43;4.80;;;13.50;99.90;;;;;;5051063;28;20046;-82
2023/08/05 03:41:25;;;;;;;10.65;4.72;;;13.50;99.90;;;;;;5059062;28;20480;-83
2023/08/05 03:43:50;;;;;;;10.00;4.75;;;13.50;99.90;;;;;;5059484;28;20036;-82
2023/08/05 03:46:16;;;;;;;12.85;5.30;;;13.50;99.90;;;;;;5039107;28;20048;-82
2023/08/05 03:48:42;;;;;;;10.43;5.60;;;13.50;99.90;;;;;;5060027;28;20039;-83
2023/08/05 03:51:07;;;;;;;13.25;5.47;;;13.60;99.90;;;;;;5096473;28;20482;-83
2023/08/05 03:53:35;;;;;;;9.23;5.15;;;13.60;99.90;;;;;;5078889;28;20501;-83
2023/08/05 03:56:01;;;;;;;11.15;5.13;;;13.60;99.90;;;;;;5055583;28;20040;-82
2023/08/05 03:58:26;;;;;;;17.25;4.95;;;13.60;99.90;;;;;;5082740;28;20064;-83
2023/08/05 04:00:53;;;;;;;11.65;4.63;;;13.60;99.90;;;;;;5082607;28;20050;-82
2023/08/05 04:03:18;;;;;;;9.38;5.05;;;13.70;99.90;;;;;;5066797;28;20037;-83
2023/08/05 04:05:44;;;;;;;10.65;5.15;;;13.70;99.90;;;;;;5063123;28;20094;-83
2023/08/05 04:08:11;;;;;;;16.17;5.43;;;13.70;99.90;;;;;;5050195;28;20053;-83
2023/08/05 04:10:38;;;;;;;12.27;5.60;;;13.80;99.90;;;;;;5060093;28;20032;-83
2023/08/05 04:13:04;;;;;;;11.75;5.68;;;13.80;99.90;;;;;;5071039;28;20040;-83
2023/08/05 04:15:33;;;;;;;15.45;5.80;;;13.80;99.90;;;;;;5044998;28;20094;-83
2023/08/05 04:17:59;;;;;;;12.35;4.75;;;13.90;99.90;;;;;;5045646;28;20113;-83
2023/08/05 04:20:27;;;;;;;12.82;4.60;;;13.90;99.90;;;;;;5072533;28;20424;-83
2023/08/05 04:22:53;;;;;;;11.13;5.00;;;13.90;99.90;;;;;;5044442;28;20042;-83
2023/08/05 04:25:19;;;;;;;16.00;4.93;;;13.90;99.90;;;;;;5074865;28;20088;-83
2023/08/05 04:27:45;;;;;;;12.40;4.50;;;13.90;99.90;;;;;;5075800;28;20055;-83
2023/08/05 04:30:11;;;;;;;9.00;4.05;;;13.90;99.90;;;;;;5070301;28;20043;-82
2023/08/05 04:32:39;;;;;;;14.38;4.38;;;13.90;99.90;;;;;;5054314;28;20047;-83
2023/08/05 04:35:05;;;;;;;10.95;4.45;;;14.00;99.90;;;;;;5058956;28;20437;-84
2023/08/05 04:37:31;;;;;;;7.97;4.15;;;14.00;99.90;;;;;;5076796;28;20051;-83
2023/08/05 04:39:57;;;;;;;11.05;4.00;;;14.00;99.90;;;;;;5077640;28;20060;-82
2023/08/05 04:42:22;;;;;;;12.50;4.60;;;14.00;99.90;;;;;;5059173;28;20508;-84
2023/08/05 04:44:48;;;;;;;9.75;3.92;;;14.00;99.90;;;;;;5054465;28;20080;-83
2023/08/05 04:47:14;;;;;;;6.57;3.42;;;14.00;99.90;;;;;;5061987;28;20071;-83
2023/08/05 04:49:42;;;;;;;14.75;4.63;;;14.00;99.90;;;;;;5073918;28;20167;-83
2023/08/05 04:52:08;;;;;;;10.13;3.60;;;14.10;99.90;;;;;;5061781;28;20078;-83
2023/08/05 04:54:43;;;;;;;7.68;4.10;;;14.10;99.90;;;;;;5065700;28;20044;-83
2023/08/05 04:57:09;;;;;;;13.13;4.50;;;14.20;99.90;;;;;;5046843;28;20059;-83
2023/08/05 04:59:35;;;;;;;8.80;3.60;;;14.30;99.90;;;;;;5069801;28;20043;-84
2023/08/05 05:02:01;;;;;;;16.17;4.45;;;14.30;99.90;;;;;;5048206;28;20055;-84
2023/08/05 05:04:27;;;;;;;8.55;3.88;;;14.40;99.90;;;;;;5070735;28;20106;-83
2023/08/05 05:06:53;;;;;;;11.48;3.33;;;14.50;99.90;;;;;;5047120;28;20047;-82
2023/08/05 05:09:18;;;;;;;9.60;3.95;;;14.50;99.90;;;;;;5073541;28;20049;-83
2023/08/05 05:11:44;;;;;;;10.90;3.80;;;14.60;99.90;;;;;;5060354;28;20049;-83
2023/08/05 05:14:10;;;;;;;12.05;3.47;;;14.70;99.90;;;;;;5047172;28;20072;-83
2023/08/05 05:16:36;;;;;;;11.07;3.65;;;14.70;99.90;;;;;;5055147;28;20074;-83
2023/08/05 05:19:01;;;;;;;11.98;3.67;;;14.80;99.90;;;;;;5053121;28;20130;-83
2023/08/05 05:21:27;;;;;;;10.43;3.90;;;14.90;99.90;;;;;;5057861;28;20048;-83
2023/08/05 05:23:53;;;;;;;8.85;3.63;;;15.00;99.90;;;;;;5076197;28;20032;-83
2023/08/05 05:26:18;;;;;;;13.35;3.55;;;15.00;99.90;;;;;;5053416;28;20072;-83
2023/08/05 05:28:44;;;;;;;9.40;3.80;;;15.10;99.90;;;;;;5063526;28;20195;-83
2023/08/05 05:31:10;;;;;;;6.95;3.38;;;15.10;99.90;;;;;;5061552;28;20036;-83
2023/08/05 05:33:36;;;;;;;7.10;3.15;;;15.20;99.90;;;;;;5061339;28;20451;-83
2023/08/05 05:36:02;;;;;;;11.23;3.08;;;15.30;99.90;;;;;;5074429;28;20069;-83
2023/08/05 05:38:27;;;;;;;11.27;3.50;;;15.30;99.90;;;;;;5064460;28;20091;-84
2023/08/05 05:40:54;;;;;;;7.10;2.90;;;15.40;99.90;;;;;;5069259;28;20040;-83
2023/08/05 05:43:20;;;;;;;9.02;2.90;;;15.30;99.90;;;;;;5068506;28;20641;-83
2023/08/05 05:45:46;;;;;;;6.68;2.67;;;15.40;99.90;;;;;;5072171;28;20904;-83
2023/08/05 05:48:12;;;;;;;8.82;3.47;;;15.40;99.90;;;;;;5074578;28;20521;-83
2023/08/05 05:50:41;;;;;;;9.38;2.97;;;15.50;99.90;;;;;;5092107;28;20988;-84
2023/08/05 05:53:08;;;;;;;8.38;2.90;;;15.50;99.90;;;;;;5066510;28;20054;-85
2023/08/05 05:55:34;;;;;;;8.73;3.30;;;15.60;99.90;;;;;;5071008;28;20067;-83
2023/08/05 05:58:00;;;;;;;9.05;2.97;;;15.70;99.90;;;;;;5063970;28;20056;-83
2023/08/05 06:00:25;;;;;;;6.57;3.08;;;15.70;99.90;;;;;;5056112;28;20060;-83
2023/08/05 06:02:51;;;;;;;7.65;2.67;;;15.70;99.90;;;;;;5032862;28;20077;-84
2023/08/05 06:05:17;;;;;;;10.35;2.65;;;15.70;99.90;;;;;;5049766;28;20041;-83
2023/08/05 06:07:44;;;;;;;8.60;2.45;;;15.70;99.90;;;;;;5033391;28;20086;-83
2023/08/05 06:10:09;;;;;;;8.30;2.90;;;15.80;99.90;;;;;;5062436;28;20076;-83
2023/08/05 06:12:37;;;;;;;13.45;2.67;;;15.90;99.90;;;;;;5060591;28;20118;-84
2023/08/05 06:15:06;;;;;;;9.73;2.47;;;16.00;99.90;;;;;;5031992;28;20083;-84
2023/08/05 06:17:31;;;;;;;10.15;2.60;;;16.10;99.90;;;;;;5042884;28;20051;-88
2023/08/05 06:19:57;;;;;;;5.68;2.13;;;16.20;99.90;;;;;;5055427;28;20363;-82
2023/08/05 06:22:23;;;;;;;6.15;1.95;;;16.30;99.90;;;;;;5026226;28;20464;-88
2023/08/05 06:24:50;;;;;;;6.25;2.33;;;16.30;99.90;;;;;;5043051;28;20443;-88
2023/08/05 06:27:16;;;;;;;9.45;2.30;;;16.30;99.90;;;;;;5032821;28;20041;-88
2023/08/05 06:29:42;;;;;;;7.53;2.05;;;16.40;99.90;;;;;;5057032;28;20529;-88
2023/08/05 06:32:08;;;;;;;5.32;1.80;;;16.60;99.90;;;;;;5043307;28;20136;-88
2023/08/05 06:34:33;;;;;;;8.75;2.08;;;16.80;99.90;;;;;;5045536;28;20143;-90
2023/08/05 06:36:59;;;;;;;4.60;1.80;;;16.80;99.90;;;;;;5045558;28;20139;-87
2023/08/05 06:39:25;;;;;;;6.32;1.70;;;16.90;99.90;;;;;;5046013;28;20063;-90
2023/08/05 06:41:50;;;;;;;5.70;2.00;;;16.90;99.90;;;;;;5032596;28;20045;-88
2023/08/05 06:44:16;;;;;;;5.47;1.88;;;17.00;99.90;;;;;;5040947;28;20495;-89
2023/08/05 06:46:42;;;;;;;7.70;1.88;;;17.00;99.90;;;;;;5041977;28;20123;-90
2023/08/05 06:49:09;;;;;;;5.18;1.65;;;17.00;99.90;;;;;;5038523;28;20044;-89
2023/08/05 06:51:35;;;;;;;6.38;1.85;;;17.00;99.90;;;;;;5036453;28;20051;-90
2023/08/05 06:54:01;;;;;;;4.25;1.40;;;17.10;99.90;;;;;;5024436;28;20049;-90
2023/08/05 06:56:26;;;;;;;5.82;1.63;;;17.20;99.90;;;;;;5041727;28;20045;-89
2023/08/05 06:58:53;;;;;;;5.00;1.70;;;17.30;99.90;;;;;;5042024;28;20095;-90
2023/08/05 07:01:18;;;;;;;6.35;1.70;;;17.40;99.90;;;;;;5046909;28;20045;-91
2023/08/05 07:03:44;;;;;;;3.60;1.50;;;17.50;99.90;;;;;;5052343;28;20503;-89
2023/08/05 07:06:16;;;;;;;8.38;1.70;;;17.60;99.90;;;;;;5053729;28;20045;-91
2023/08/05 07:08:42;;;;;;;5.07;1.38;;;17.80;99.90;;;;;;5060861;22;20060;-91
2023/08/05 07:11:08;;;;;;;4.55;1.58;;;17.90;99.90;;;;;;5044649;28;20118;-89
2023/08/05 07:13:34;;;;;;;4.78;1.35;;;18.20;99.90;;;;;;5028011;28;20354;-91
2023/08/05 07:16:01;;;;;;;4.40;1.60;;;18.40;99.90;;;;;;5053545;28;20033;-91
2023/08/05 07:18:28;;;;;;;7.60;1.60;;;18.60;99.90;;;;;;5019857;28;20059;-89
2023/08/05 07:20:54;;;;;;;4.00;1.73;;;18.60;99.90;;;;;;5050171;28;20033;-91
2023/08/05 07:23:20;;;;;;;7.03;1.73;;;18.60;99.90;;;;;;5047633;28;20056;-91
2023/08/05 07:25:46;;;;;;;6.55;1.70;;;18.40;99.90;;;;;;5027323;28;20044;-91
2023/08/05 07:28:12;;;;;;;6.18;1.95;;;18.30;99.90;;;;;;5027845;28;20715;-90
2023/08/05 07:30:37;;;;;;;8.95;2.00;;;18.30;99.90;;;;;;5024696;28;20180;-88
2023/08/05 07:33:05;;;;;;;6.50;1.42;;;18.20;99.90;;;;;;5036898;28;20428;-90
2023/08/05 07:35:32;;;;;;;4.43;1.55;;;18.20;99.90;;;;;;5028609;28;20045;-90
2023/08/05 07:37:58;;;;;;;5.82;1.60;;;18.10;99.90;;;;;;5028109;28;20320;-90
2023/08/05 07:40:24;;;;;;;4.60;1.75;;;18.20;99.90;;;;;;5041369;28;20048;-90
2023/08/05 07:42:53;;;;;;;3.95;1.27;;;18.20;99.90;;;;;;5018143;28;20112;-91
2023/08/05 07:45:21;;;;;;;4.53;1.52;;;18.20;99.90;;;;;;5016742;28;20999;-90
2023/08/05 07:47:47;;;;;;;3.78;1.42;;;18.30;99.90;;;;;;5035238;28;20056;-90
2023/08/05 07:50:16;;;;;;;5.13;1.60;;;18.30;99.90;;;;;;5016968;28;20155;-91
2023/08/05 07:52:43;;;;;;;6.53;1.60;;;18.40;99.90;;;;;;5047025;28;20110;-90
2023/08/05 07:55:09;;;;;;;5.25;1.55;;;18.50;99.90;;;;;;5039988;28;20041;-91
2023/08/05 07:57:40;;;;;;;6.70;1.70;;;18.40;99.90;;;;;;5012124;28;20172;-91
2023/08/05 08:00:19;;;;;;;5.38;1.55;;;18.50;99.90;;;;;;5029768;28;20055;-91
2023/08/05 08:02:45;;;;;;;5.93;1.48;;;18.50;99.90;;;;;;5038408;28;20088;-92
2023/08/05 08:05:35;;;;;;;4.80;1.33;;;18.60;99.90;;;;;;5022490;28;20085;-91
2023/08/05 08:08:05;;;;;;;6.75;1.67;;;18.70;99.90;;;;;;5028222;28;20056;-91
2023/08/05 08:10:30;;;;;;;3.80;1.40;;;18.90;99.90;;;;;;5024905;28;20103;-91
2023/08/05 08:13:01;;;;;;;5.53;1.55;;;18.90;99.90;;;;;;5039783;28;20052;-91
2023/08/05 08:15:32;;;;;;;8.48;1.42;;;18.90;99.90;;;;;;5026680;28;20049;-91
2023/08/05 08:18:01;;;;;;;6.00;1.55;;;19.00;99.90;;;;;;5036939;28;20040;-91
2023/08/05 08:20:27;;;;;;;6.32;1.35;;;19.10;99.90;;;;;;5044905;28;20053;-91
2023/08/05 08:22:52;;;;;;;5.72;1.58;;;19.30;99.90;;;;;;5023159;28;20044;-90
2023/08/05 08:25:25;;;;;;;4.55;1.60;;;19.40;99.90;;;;;;5051268;28;20048;-95
2023/08/05 08:27:51;;;;;;;4.63;2.17;;;19.50;99.90;;;;;;5038265;28;20049;-91
2023/08/05 08:30:17;;;;;;;8.52;1.88;;;19.60;99.90;;;;;;5026438;28;20045;-91
2023/08/05 08:32:45;;;;;;;8.18;2.08;;;19.60;99.90;;;;;;5033497;28;20055;-91
2023/08/05 08:35:11;;;;;;;3.47;1.35;;;19.50;99.90;;;;;;5038353;28;20041;-91
2023/08/05 08:37:37;;;;;;;5.22;1.70;;;19.50;99.90;;;;;;5048547;28;20045;-91
2023/08/05 08:40:09;;;;;;;5.22;1.40;;;19.60;99.90;;;;;;5049140;28;20033;-91
2023/08/05 08:42:38;;;;;;;3.35;1.50;;;19.60;99.90;;;;;;5035352;28;20045;-92
2023/08/05 08:45:06;;;;;;;6.57;1.52;;;19.60;99.90;;;;;;5023683;28;20095;-91
2023/08/05 08:47:33;;;;;;;3.90;1.30;;;19.60;99.90;;;;;;5030051;28;20429;-91
2023/08/05 08:50:05;;;;;;;8.43;1.63;;;19.60;99.90;;;;;;5023983;28;20077;-92
2023/08/05 08:52:32;;;;;;;2.88;1.17;;;19.60;99.90;;;;;;5044314;28;20501;-90
2023/08/05 08:54:58;;;;;;;6.18;1.65;;;19.70;99.90;;;;;;5064520;28;20143;-91
2023/08/05 08:57:24;;;;;;;4.68;1.40;;;19.80;99.90;;;;;;5044007;28;20102;-91
2023/08/05 08:59:50;;;;;;;7.25;1.63;;;19.80;99.90;;;;;;5046750;28;20053;-91
2023/08/05 09:02:23;;;;;;;4.40;1.05;;;19.80;99.90;;;;;;5024076;28;20083;-90
2023/08/05 09:04:54;;;;;;;6.63;1.60;;;19.80;99.90;;;;;;5065617;28;20040;-91
2023/08/05 09:07:27;;;;;;;5.55;1.60;;;19.90;99.90;;;;;;5051880;28;20048;-92
2023/08/05 09:09:57;;;;;;;8.73;2.75;;;20.10;99.90;;;;;;5056137;28;20043;-91
2023/08/05 09:12:23;;;;;;;7.55;1.63;;;20.20;99.90;;;;;;5071770;28;20044;-92
2023/08/05 09:14:56;;;;;;;5.43;1.40;;;20.30;99.90;;;;;;5057317;28;20043;-92
2023/08/05 09:17:24;;;;;;;7.00;1.60;;;20.30;99.90;;;;;;5061105;28;20040;-92
2023/08/05 09:19:50;;;;;;;3.22;1.33;;;20.40;99.90;;;;;;5066085;28;20084;-91
2023/08/05 09:22:16;;;;;;;4.60;1.20;;;20.40;99.90;;;;;;5052532;28;20091;-91
2023/08/05 09:24:42;;;;;;;240.73;11.25;;;20.50;99.90;;;;;;5053074;28;20051;-91
2023/08/05 09:27:07;;;;;;;2.85;1.27;;;20.70;99.90;;;;;;5051059;28;20078;-92
2023/08/05 09:29:36;;;;;;;2.65;0.98;;;20.80;99.90;;;;;;5049163;28;20059;-92
2023/08/05 09:32:05;;;;;;;6.13;1.02;;;20.90;99.90;;;;;;5049799;28;20055;-90
2023/08/05 09:34:49;;;;;;;7.07;1.20;;;20.70;99.90;;;;;;5052049;28;20047;-90
2023/08/05 09:37:15;;;;;;;4.85;1.15;;;20.60;99.90;;;;;;5069906;28;20089;-91
2023/08/05 09:39:51;;;;;;;5.40;1.30;;;20.60;99.90;;;;;;5060388;28;20055;-91
2023/08/05 09:42:24;;;;;;;11.70;1.65;;;20.70;99.90;;;;;;5076530;28;20031;-91
2023/08/05 09:44:58;;;;;;;2.45;1.10;;;20.90;99.90;;;;;;5092654;28;20101;-92
2023/08/05 09:47:30;;;;;;;5.13;1.25;;;20.90;99.90;;;;;;5069529;28;20452;-92
2023/08/05 09:50:00;;;;;;;1.55;0.70;;;21.00;99.90;;;;;;5070933;28;20036;-91
2023/08/05 09:52:33;;;;;;;7.70;1.35;;;20.90;99.90;;;;;;5069155;28;20060;-91
2023/08/05 09:55:07;;;;;;;3.03;0.90;;;20.80;99.90;;;;;;5084789;28;20115;-92
2023/08/05 09:57:33;;;;;;;3.20;1.00;;;20.80;99.90;;;;;;5061008;28;20049;-91
2023/08/05 10:00:00;;;;;;;5.07;1.30;;;20.90;99.90;;;;;;5059650;28;20296;-91
2023/08/05 10:02:26;;;;;;;3.30;1.10;;;20.90;99.90;;;;;;5068045;28;20045;-91
2023/08/05 10:04:54;;;;;;;3.92;1.00;;;21.00;99.90;;;;;;5088460;28;20054;-92
2023/08/05 10:07:43;;;;;;;4.20;1.20;;;21.10;99.90;;;;;;5075264;28;20391;-95
2023/08/05 10:10:19;;;;;;;4.78;1.20;;;21.10;99.90;;;;;;5068715;28;20047;-91
2023/08/05 10:13:30;;;;;;;3.10;1.10;;;21.10;99.90;;;;;;5066373;28;20104;-94
2023/08/05 10:15:57;;;;;;;6.25;0.93;;;21.10;99.90;;;;;;5068584;28;20037;-93
2023/08/05 10:18:32;;;;;;;4.25;1.30;;;21.00;99.90;;;;;;5067462;28;20061;-92
2023/08/05 10:21:03;;;;;;;5.88;1.30;;;21.00;99.90;;;;;;5070716;28;20539;-92
2023/08/05 10:23:34;;;;;;;4.43;1.35;;;20.90;99.90;;;;;;5068299;28;20048;-93
2023/08/05 10:26:41;;;;;;;4.63;1.10;;;20.70;99.90;;;;;;5050386;28;20497;-93
2023/08/05 10:29:37;;;;;;;3.90;1.30;;;20.50;99.90;;;;;;5054234;28;20090;-93
2023/08/05 10:33:04;;;;;;;3.65;1.10;;;20.50;99.90;;;;;;5057246;28;20040;-93
2023/08/05 10:35:52;;;;;;;4.75;1.30;;;20.70;99.90;;;;;;4995311;28;20553;-93
2023/08/05 10:38:52;;;;;;;5.03;1.10;;;20.70;99.90;;;;;;4995764;28;20038;-93
2023/08/05 10:41:37;;;;;;;6.95;1.30;;;20.90;99.90;;;;;;4978189;28;20517;-95
2023/08/05 10:44:14;;;;;;;4.88;1.10;;;21.10;99.90;;;;;;5049022;28;20094;-94
2023/08/05 10:47:29;;;;;;;3.65;1.00;;;21.30;99.90;;;;;;5047275;28;20067;-93
2023/08/05 10:49:59;;;;;;;3.33;1.00;;;21.20;99.90;;;;;;4997810;28;20507;-94
2023/08/05 10:52:41;;;;;;;4.60;1.17;;;21.30;99.90;;;;;;4998143;28;20057;-93
2023/08/05 10:55:17;;;;;;;4.85;1.10;;;21.30;99.90;;;;;;5059072;28;20109;-93
2023/08/05 10:57:47;;;;;;;4.05;1.50;;;21.30;99.90;;;;;;5056424;28;20049;-92
2023/08/05 11:00:31;;;;;;;3.95;1.33;;;21.40;99.90;;;;;;5059949;28;20471;-93
2023/08/05 11:03:31;;;;;;;4.50;1.33;;;21.30;99.90;;;;;;5047324;28;20052;-92
2023/08/05 11:06:12;;;;;;;4.13;1.38;;;21.20;99.90;;;;;;5058958;28;20055;-93
2023/08/05 11:08:44;;;;;;;2.95;1.20;;;21.10;99.90;;;;;;5052708;28;20067;-94
2023/08/05 11:11:17;;;;;;;3.53;1.20;;;21.10;99.90;;;;;;5072059;28;20085;-92
2023/08/05 11:13:49;;;;;;;5.00;1.20;;;21.20;99.90;;;;;;5047697;28;20045;-92
2023/08/05 11:16:19;;;;;;;3.10;1.10;;;21.20;99.90;;;;;;5048514;28;20400;-93
2023/08/05 11:19:00;;;;;;;5.75;1.60;;;21.40;99.90;;;;;;5057427;28;20052;-92
2023/08/05 11:21:35;;;;;;;4.97;1.40;;;21.50;99.90;;;;;;5062337;28;20040;-93
2023/08/05 11:24:06;;;;;;;3.97;1.45;;;21.60;99.90;;;;;;5049216;28;20044;-94
2023/08/05 11:27:02;;;;;;;5.15;1.38;;;21.70;99.90;;;;;;5051303;28;20072;-93
2023/08/05 11:29:46;;;;;;;4.95;1.65;;;21.70;99.90;;;;;;5059511;28;20104;-94
2023/08/05 11:32:18;;;;;;;5.30;1.50;;;21.80;99.90;;;;;;5044257;28;20489;-92
2023/08/05 11:35:12;;;;;;;4.75;1.20;;;21.90;99.90;;;;;;5076968;28;20592;-94
2023/08/05 11:37:43;;;;;;;5.45;1.48;;;22.10;99.90;;;;;;5078290;28;20047;-93
2023/08/05 11:40:18;;;;;;;3.40;1.67;;;22.20;99.90;;;;;;5067980;28;20098;-93
2023/08/05 11:42:50;;;;;;;4.25;1.30;;;22.40;99.90;;;;;;5060973;28;20482;-92
2023/08/05 11:45:42;;;;;;;3.58;1.35;;;22.70;99.90;;;;;;5066089;28;20057;-93
2023/08/05 11:51:48;;;;;;;6.47;1.38;;;22.60;99.90;;;;;;5076662;28;20079;-94
2023/08/05 11:54:37;;;;;;;4.05;1.33;;;22.60;99.90;;;;;;5069505;28;20044;-93
2023/08/05 11:57:23;;;;;;;7.00;1.30;;;22.60;99.90;;;;;;5092172;28;20024;-92
2023/08/05 12:00:05;;;;;;;6.53;1.60;;;22.60;99.90;;;;;;5071026;28;20043;-92
2023/08/05 12:02:40;;;;;;;4.20;1.42;;;22.70;99.90;;;;;;5093980;28;20048;-93
2023/08/05 12:05:23;;;;;;;3.55;1.30;;;22.70;99.90;;;;;;5056142;28;20131;-93
2023/08/05 12:07:54;;;;;;;5.15;1.58;;;22.80;99.90;;;;;;5061282;28;20048;-92
2023/08/05 12:10:55;;;;;;;4.40;1.40;;;22.60;99.90;;;;;;5054180;28;20037;-93
2023/08/05 12:13:35;;;;;;;7.00;1.58;;;22.40;99.90;;;;;;5067201;28;20553;-93
2023/08/05 12:16:16;;;;;;;6.68;1.27;;;22.30;99.90;;;;;;5058410;28;20055;-96
2023/08/05 12:18:46;;;;;;;3.65;1.25;;;21.90;99.90;;;;;;5080238;28;20044;-92
2023/08/05 12:21:15;;;;;;;5.10;1.48;;;21.80;99.90;;;;;;5039421;28;20037;-93
2023/08/05 12:24:07;;;;;;;4.88;1.48;;;21.70;99.90;;;;;;5065273;28;20127;-93
2023/08/05 12:26:43;;;;;;;4.90;1.65;;;21.70;99.90;;;;;;5052114;28;20056;-93
2023/08/05 12:29:11;;;;;;;4.88;1.42;;;21.60;99.90;;;;;;5075863;28;20045;-93
2023/08/05 12:31:42;;;;;;;6.05;1.48;;;21.60;99.90;;;;;;5052357;28;20436;-93
2023/08/05 12:34:20;;;;;;;3.42;1.30;;;21.60;99.90;;;;;;5073406;28;20123;-92
2023/08/05 12:36:48;;;;;;;3.85;1.58;;;21.60;99.90;;;;;;5076019;28;20101;-93
2023/08/05 12:39:17;;;;;;;3.50;1.42;;;21.60;99.90;;;;;;5056219;28;20049;-93
2023/08/05 12:41:54;;;;;;;4.38;1.65;;;21.50;99.90;;;;;;5065571;28;20044;-93
2023/08/05 12:44:25;;;;;;;5.20;1.42;;;21.40;99.90;;;;;;5054003;28;20060;-93
2023/08/05 12:46:53;;;;;;;4.53;2.10;;;21.30;99.90;;;;;;5068785;28;20044;-91
2023/08/05 12:49:19;;;;;;;4.65;1.83;;;21.30;99.90;;;;;;5070545;28;20048;-93
2023/08/05 12:51:56;;;;;;;5.57;1.88;;;21.20;99.90;;;;;;5067760;28;20057;-93
2023/08/05 12:54:38;;;;;;;14.60;3.33;;;21.10;99.90;;;;;;5050885;28;20045;-93
2023/08/05 12:57:05;;;;;;;6.13;2.13;;;21.00;99.90;;;;;;5084817;28;20037;-93
2023/08/05 12:59:39;;;;;;;4.53;2.22;;;20.90;99.90;;;;;;5066727;28;20135;-93